KAUW/AUW METAR and TAF weather

Enter ICAO airport designator
Station Type Date Time Source
KAUW METAR 2019/12/08 18:54 UTC NOAA

KAUW 081854Z AUTO 30008KT 10SM CLR 03/M02 A2971 RMK AO2 SLP078 T00281017


Station Type Date Time Source
KAUW Decoded METAR 2019/12/08 18:54 UTC NOAA

WAUSAU DOWNTOWN AIRPORT, WI, United States (KAUW) 44-56N 089-37W 362M
Dec 08, 2019 - 01:54 PM EST / 2019.12.08 1854 UTC
Wind: from the WNW (300 degrees) at 9 MPH (8 KT):0
Visibility: 10 mile(s):0
Sky conditions: clear
Temperature: 37.0 F (2.8 C)
Dew Point: 28.9 F (-1.7 C)
Relative Humidity: 72%
Pressure (altimeter): 29.71 in. Hg (1006 hPa)
ob: KAUW 081854Z AUTO 30008KT 10SM CLR 03/M02 A2971 RMK AO2 SLP078 T00281017
cycle: 19

Station Type Date Time Source
KAUW TAF 2019/12/08 18:22 UTC NOAA

TAF KAUW 081720Z 0818/0918 25007KT P6SM BKN015
TEMPO 0818/0821 SCT015
FM082100 32006KT P6SM OVC009
FM090400 06004KT P6SM -FZDZ OVC007
FM091000 07007KT 2SM -FZDZSN BKN004
FM091400 05006KT 1SM -SN BR BKN003

Example: see airport list